createdAt,value
2018-05-04T00:00:35.527Z,1.97
2018-05-04T00:05:26.407Z,2.30
2018-05-04T00:10:17.372Z,2.23
2018-05-04T00:15:08.273Z,2.00
2018-05-04T00:19:59.239Z,1.63
2018-05-04T00:24:50.161Z,2.10
2018-05-04T00:29:41.055Z,2.07
2018-05-04T00:34:32.000Z,2.20
2018-05-04T00:39:22.920Z,1.93
2018-05-04T00:44:13.847Z,1.70
2018-05-04T00:49:04.759Z,2.17
2018-05-04T00:54:08.118Z,1.97
2018-05-04T00:58:59.822Z,2.40
2018-05-04T01:03:50.726Z,1.73
2018-05-04T01:08:41.653Z,1.97
2018-05-04T01:13:32.577Z,1.60
2018-05-04T01:18:24.204Z,1.73
2018-05-04T01:23:15.142Z,2.37
2018-05-04T01:28:06.032Z,2.20
2018-05-04T01:32:56.952Z,2.80
2018-05-04T01:37:47.873Z,1.90
2018-05-04T01:42:38.797Z,2.23
2018-05-04T01:47:29.711Z,2.33
2018-05-04T01:52:20.610Z,2.30
2018-05-04T01:57:11.559Z,2.30
2018-05-04T02:02:02.474Z,2.20
2018-05-04T02:06:53.389Z,1.90
2018-05-04T02:11:44.289Z,2.00
2018-05-04T02:16:35.218Z,2.20
2018-05-04T02:21:26.117Z,2.23
2018-05-04T02:26:17.026Z,2.03
2018-05-04T02:31:07.934Z,1.90
2018-05-04T02:35:58.866Z,2.40
2018-05-04T02:40:49.777Z,2.20
2018-05-04T02:45:40.723Z,2.47
2018-05-04T02:50:31.658Z,2.00
2018-05-04T02:55:22.560Z,2.23
2018-05-04T03:00:13.474Z,2.57
2018-05-04T03:05:04.379Z,1.80
2018-05-04T03:09:55.296Z,2.30
2018-05-04T03:14:46.202Z,2.27
2018-05-04T03:19:37.112Z,2.00
2018-05-04T03:24:28.759Z,2.00
2018-05-04T03:29:19.661Z,2.40
2018-05-04T03:34:11.397Z,2.33
2018-05-04T03:39:03.027Z,2.50
2018-05-04T03:43:54.738Z,2.70
2018-05-04T03:48:45.648Z,2.83
2018-05-04T03:53:36.557Z,2.57
2018-05-04T03:58:39.994Z,2.47
2018-05-04T04:03:43.359Z,2.40
2018-05-04T04:08:34.344Z,2.73
2018-05-04T04:13:25.999Z,2.13
2018-05-04T04:18:17.646Z,2.27
2018-05-04T04:23:08.590Z,2.23
2018-05-04T04:27:59.534Z,2.10
2018-05-04T04:32:50.448Z,2.60
2018-05-04T04:37:41.358Z,1.90
2018-05-04T04:42:32.273Z,2.53
2018-05-04T04:47:23.166Z,2.57
2018-05-04T04:52:14.141Z,2.27
2018-05-04T04:57:05.150Z,2.50
2018-05-04T05:01:56.175Z,2.20
2018-05-04T05:06:46.990Z,2.40
2018-05-04T05:11:37.908Z,2.43
2018-05-04T05:16:28.801Z,2.33
2018-05-04T05:21:19.736Z,2.00
2018-05-04T05:26:10.661Z,2.77
2018-05-04T05:31:01.595Z,3.30
2018-05-04T05:35:52.498Z,2.40
2018-05-04T05:40:44.135Z,2.70
2018-05-04T05:45:35.024Z,2.37
2018-05-04T05:50:25.961Z,2.80
2018-05-04T05:55:16.847Z,3.00
2018-05-04T06:00:07.754Z,2.97
2018-05-04T06:04:58.687Z,2.80
2018-05-04T06:09:49.610Z,2.20
2018-05-04T06:14:40.513Z,3.07
2018-05-04T06:19:31.417Z,2.80
2018-05-04T06:24:22.618Z,2.80
2018-05-04T06:29:13.526Z,2.90
2018-05-04T06:34:04.462Z,2.73
2018-05-04T06:38:56.394Z,3.50
2018-05-04T06:43:47.385Z,3.97
2018-05-04T06:48:38.369Z,3.10
2018-05-04T06:53:29.268Z,2.90
2018-05-04T06:58:20.964Z,2.87
2018-05-04T07:03:12.662Z,2.40
2018-05-04T07:08:03.551Z,1.90
2018-05-04T07:12:54.458Z,1.53
2018-05-04T07:17:45.359Z,1.73
2018-05-04T07:22:36.253Z,1.90
2018-05-04T07:27:27.214Z,1.60
2018-05-04T07:32:18.106Z,1.67
2018-05-04T07:37:09.003Z,1.80
2018-05-04T07:41:59.978Z,1.97
2018-05-04T07:46:50.892Z,1.47
2018-05-04T07:51:41.903Z,1.47
2018-05-04T07:56:36.783Z,1.50
2018-05-04T08:01:27.771Z,1.30
2018-05-04T08:06:19.417Z,1.50
2018-05-04T08:11:10.401Z,1.30
2018-05-04T08:16:01.308Z,1.10
2018-05-04T08:20:52.234Z,1.00
2018-05-04T08:25:43.154Z,1.00
2018-05-04T08:30:34.066Z,0.80
2018-05-04T08:35:24.998Z,1.03
2018-05-04T08:40:15.918Z,1.00
2018-05-04T08:45:06.926Z,0.90
2018-05-04T08:49:58.598Z,0.97
2018-05-04T08:54:50.246Z,1.33
2018-05-04T08:59:41.880Z,1.20
2018-05-04T09:04:33.517Z,0.90
2018-05-04T09:09:24.425Z,1.10
2018-05-04T09:14:15.311Z,1.00
2018-05-04T09:19:06.214Z,1.60
2018-05-04T09:23:57.126Z,1.50
2018-05-04T09:28:48.014Z,1.00
2018-05-04T09:33:39.640Z,1.00
2018-05-04T09:38:31.281Z,1.00
2018-05-04T09:43:22.989Z,0.90
2018-05-04T09:48:13.892Z,1.10
2018-05-04T09:53:04.809Z,0.90
2018-05-04T09:57:55.801Z,1.30
2018-05-04T10:02:46.726Z,0.97
2018-05-04T10:07:37.691Z,1.00
2018-05-04T10:12:28.584Z,1.13
2018-05-04T10:17:19.526Z,1.20
2018-05-04T10:22:10.436Z,0.93
2018-05-04T10:27:01.351Z,1.00
2018-05-04T10:31:52.261Z,1.07
2018-05-04T10:36:43.161Z,1.37
2018-05-04T10:41:34.118Z,1.03
2018-05-04T10:46:25.028Z,0.93
2018-05-04T10:51:15.944Z,0.90
2018-05-04T10:56:08.055Z,1.10
2018-05-04T11:00:59.010Z,0.80
2018-05-04T11:05:49.941Z,1.00
2018-05-04T11:10:40.872Z,0.70
2018-05-04T11:15:31.775Z,0.90
2018-05-04T11:20:22.681Z,0.90
2018-05-04T11:25:13.694Z,1.10
2018-05-04T11:30:04.609Z,0.80
2018-05-04T11:34:55.582Z,1.03
2018-05-04T11:39:46.496Z,0.90
2018-05-04T11:44:37.409Z,1.00
2018-05-04T11:49:28.322Z,1.10
2018-05-04T11:54:19.220Z,1.53
2018-05-04T11:59:10.125Z,0.90
2018-05-04T12:04:01.092Z,1.57
2018-05-04T12:08:51.986Z,1.20
2018-05-04T12:13:42.901Z,1.13
2018-05-04T12:18:33.794Z,1.30
2018-05-04T12:23:24.706Z,1.37
2018-05-04T12:28:15.679Z,1.33
2018-05-04T12:33:06.658Z,1.40
2018-05-04T12:37:58.288Z,0.80
2018-05-04T12:42:49.929Z,0.90
2018-05-04T12:47:40.833Z,0.93
2018-05-04T12:52:31.775Z,0.93
2018-05-04T12:57:22.687Z,0.90
2018-05-04T13:02:14.360Z,0.60
2018-05-04T13:07:05.311Z,0.73
2018-05-04T13:11:57.005Z,0.90
2018-05-04T13:16:47.917Z,0.90
2018-05-04T13:21:38.833Z,0.80
2018-05-04T13:26:30.488Z,0.87
2018-05-04T13:31:21.494Z,0.90
2018-05-04T13:36:12.393Z,0.93
2018-05-04T13:41:03.370Z,0.70
2018-05-04T13:45:54.292Z,0.90
2018-05-04T13:50:45.197Z,0.60
2018-05-04T13:55:36.089Z,0.83
2018-05-04T14:00:27.767Z,1.13
2018-05-04T14:05:19.482Z,0.77
2018-05-04T14:10:10.398Z,1.00
2018-05-04T14:15:01.922Z,0.87
2018-05-04T14:19:52.849Z,1.00
2018-05-04T14:24:43.833Z,1.30
2018-05-04T14:29:34.739Z,1.37
2018-05-04T14:34:25.662Z,1.20
2018-05-04T14:39:17.318Z,1.03
2018-05-04T14:44:08.243Z,0.90
2018-05-04T14:48:59.140Z,0.83
2018-05-04T14:53:50.048Z,1.20
2018-05-04T14:58:40.971Z,1.30
2018-05-04T15:03:31.897Z,1.00
2018-05-04T15:08:22.804Z,1.13
2018-05-04T15:13:14.066Z,1.27
2018-05-04T15:18:05.033Z,0.83
2018-05-04T15:22:55.949Z,1.00
2018-05-04T15:27:46.849Z,1.60
2018-05-04T15:32:37.745Z,1.63
2018-05-04T15:37:28.699Z,1.37
2018-05-04T15:42:19.686Z,2.17
2018-05-04T15:47:11.316Z,1.20
2018-05-04T15:52:03.189Z,1.50
2018-05-04T15:56:54.842Z,1.00
2018-05-04T16:01:46.526Z,1.00
2018-05-04T16:06:38.229Z,1.03
2018-05-04T16:11:29.308Z,1.27
2018-05-04T16:16:20.341Z,1.43
2018-05-04T16:21:11.998Z,0.87
2018-05-04T16:26:02.902Z,1.07
2018-05-04T16:30:54.550Z,1.20
2018-05-04T16:35:46.192Z,1.20
2018-05-04T16:40:37.225Z,1.10
2018-05-04T16:45:28.189Z,0.87
2018-05-04T16:50:19.089Z,1.20
2018-05-04T16:55:10.749Z,0.80
2018-05-04T17:00:02.455Z,1.27
2018-05-04T17:04:54.118Z,1.40
2018-05-04T17:09:45.147Z,1.00
2018-05-04T17:14:36.073Z,1.10
2018-05-04T17:19:27.017Z,0.80
2018-05-04T17:24:17.920Z,1.00
2018-05-04T17:29:08.826Z,1.30
2018-05-04T17:33:59.755Z,1.20
2018-05-04T17:38:50.651Z,1.13
2018-05-04T17:43:41.574Z,0.90
2018-05-04T17:48:33.219Z,1.20
2018-05-04T17:53:24.934Z,0.87
2018-05-04T17:58:15.847Z,1.07
2018-05-04T18:03:06.780Z,1.30
2018-05-04T18:07:57.666Z,1.33
2018-05-04T18:12:48.676Z,1.20
2018-05-04T18:17:39.586Z,1.17
2018-05-04T18:22:30.484Z,1.30
2018-05-04T18:27:22.189Z,1.63
2018-05-04T18:32:13.107Z,1.53
2018-05-04T18:37:04.010Z,1.20
2018-05-04T18:41:54.917Z,1.33
2018-05-04T18:46:45.830Z,1.27
2018-05-04T18:51:37.463Z,1.30
2018-05-04T18:56:29.863Z,1.53
2018-05-04T19:01:21.508Z,1.37
2018-05-04T19:06:13.149Z,1.20
2018-05-04T19:11:04.787Z,1.80
2018-05-04T19:15:56.509Z,1.10
2018-05-04T19:20:47.408Z,1.67
2018-05-04T19:25:53.325Z,1.40
2018-05-04T19:30:45.032Z,1.50
2018-05-04T19:35:35.997Z,1.60
2018-05-04T19:40:26.909Z,1.63
2018-05-04T19:45:17.828Z,1.33
2018-05-04T19:50:08.749Z,1.43
2018-05-04T19:55:01.137Z,1.73
2018-05-04T19:59:52.824Z,1.30
2018-05-04T20:04:43.729Z,1.80
2018-05-04T20:09:34.625Z,1.80
2018-05-04T20:14:26.259Z,1.27
2018-05-04T20:19:17.322Z,1.73
2018-05-04T20:24:08.249Z,2.00
2018-05-04T20:28:59.225Z,1.93
2018-05-04T20:33:50.242Z,2.63
2018-05-04T20:38:43.857Z,2.30
2018-05-04T20:43:35.549Z,2.20
2018-05-04T20:48:26.436Z,1.90
2018-05-04T20:53:18.228Z,2.30
2018-05-04T20:58:09.150Z,1.93
2018-05-04T21:03:00.077Z,2.10
2018-05-04T21:07:50.980Z,2.23
2018-05-04T21:12:41.879Z,2.20
2018-05-04T21:17:33.525Z,1.97
2018-05-04T21:22:25.256Z,2.87
2018-05-04T21:27:16.944Z,1.93
2018-05-04T21:32:08.630Z,2.00
2018-05-04T21:37:00.361Z,2.20
2018-05-04T21:41:51.378Z,2.00
2018-05-04T21:46:42.277Z,1.77
2018-05-04T21:51:33.200Z,2.07
2018-05-04T21:56:24.122Z,2.67
2018-05-04T22:01:15.050Z,2.00
2018-05-04T22:06:05.974Z,1.70
2018-05-04T22:10:56.917Z,1.97
2018-05-04T22:15:48.624Z,2.10
2018-05-04T22:20:39.732Z,1.90
2018-05-04T22:25:30.632Z,2.30
2018-05-04T22:30:22.323Z,2.03
2018-05-04T22:35:13.223Z,2.60
2018-05-04T22:40:04.202Z,2.37
2018-05-04T22:44:55.962Z,2.10
2018-05-04T22:49:46.869Z,1.80
2018-05-04T22:54:38.594Z,2.30
2018-05-04T22:59:29.610Z,2.50
2018-05-04T23:04:20.629Z,2.50
2018-05-04T23:09:11.629Z,2.03
2018-05-04T23:14:02.574Z,2.60
2018-05-04T23:18:53.506Z,1.90
2018-05-04T23:23:44.417Z,1.90
2018-05-04T23:28:35.390Z,2.30
2018-05-04T23:33:27.117Z,2.10
2018-05-04T23:38:18.748Z,1.93
2018-05-04T23:43:09.645Z,1.80
2018-05-04T23:48:00.609Z,1.70
2018-05-04T23:52:52.316Z,2.10
2018-05-04T23:57:43.240Z,2.00
